Time;durP1;ratioP1;P1;durP2;ratioP2;P2;SDS_P1;SDS_P2;PMS_P1;PMS_P2;Temp;Humidity;BMP_temperature;BMP_pressure;BME280_temperature;BME280_humidity;BME280_pressure;Samples;Min_cycle;Max_cycle;Signal;HPM_P1;HPM_P2
2023/04/01 00:02:17;;;;;;;7.15;1.73;;;;;;;8.47;99.60;99071.41;4988324;28;20121;-75
2023/04/01 00:04:42;;;;;;;7.43;2.00;;;;;;;8.47;100.00;99076.63;4960894;28;20077;-76
2023/04/01 00:07:08;;;;;;;8.00;2.10;;;;;;;8.47;99.82;99082.69;4963211;28;20051;-77
2023/04/01 00:09:34;;;;;;;6.07;1.80;;;;;;;8.47;99.89;99079.25;4964890;28;20042;-77
2023/04/01 00:12:01;;;;;;;10.15;2.28;;;;;;;8.44;99.79;99079.31;4962490;28;20073;-77
2023/04/01 00:14:26;;;;;;;7.30;1.92;;;;;;;8.45;99.89;99089.72;4996939;28;20177;-77
2023/04/01 00:16:52;;;;;;;6.20;1.70;;;;;;;8.45;99.87;99081.91;4964460;28;20062;-77
2023/04/01 00:19:18;;;;;;;5.65;1.60;;;;;;;8.45;99.85;99081.06;4974928;28;20056;-77
2023/04/01 00:21:43;;;;;;;5.72;1.65;;;;;;;8.44;100.00;99084.53;4978905;28;20070;-77
2023/04/01 00:24:09;;;;;;;8.27;2.30;;;;;;;8.45;99.48;99088.88;4995545;28;20164;-77
2023/04/01 00:26:35;;;;;;;6.15;1.77;;;;;;;8.44;99.81;99084.53;4986513;28;20096;-77
2023/04/01 00:29:00;;;;;;;3.83;1.80;;;;;;;8.44;100.00;99082.78;4982202;28;20034;-76
2023/04/01 00:31:26;;;;;;;6.70;2.70;;;;;;;8.43;100.00;99090.66;4955124;28;20046;-77
2023/04/01 00:33:52;;;;;;;7.65;2.45;;;;;;;8.45;100.00;99083.66;4992974;28;20486;-77
2023/04/01 00:36:21;;;;;;;5.90;2.33;;;;;;;8.43;100.00;99082.81;4981986;28;20129;-77
2023/04/01 00:38:47;;;;;;;7.32;2.58;;;;;;;8.45;100.00;99083.66;4998544;28;20049;-77
2023/04/01 00:41:14;;;;;;;5.70;2.55;;;;;;;8.43;100.00;99088.91;4997926;28;20124;-77
2023/04/01 00:43:41;;;;;;;6.22;2.33;;;;;;;8.42;100.00;99089.81;4997295;28;20036;-76
2023/04/01 00:46:06;;;;;;;9.50;2.75;;;;;;;8.41;100.00;99093.31;4998357;28;20089;-78
2023/04/01 00:48:39;;;;;;;8.27;2.78;;;;;;;8.44;100.00;99098.47;4981779;28;20034;-77
2023/04/01 00:51:09;;;;;;;8.35;2.80;;;;;;;8.41;100.00;99105.50;4997564;28;20417;-77
2023/04/01 00:53:39;;;;;;;5.55;2.70;;;;;;;8.43;100.00;99101.09;4998196;28;20034;-77
2023/04/01 00:56:20;;;;;;;6.80;2.63;;;;;;;8.42;99.96;99101.97;4990348;28;20107;-77
2023/04/01 00:59:01;;;;;;;5.10;2.72;;;;;;;8.43;100.00;99107.19;4997523;28;20033;-76
2023/04/01 01:01:29;;;;;;;5.82;2.60;;;;;;;8.44;100.00;99110.63;4987190;28;20041;-77
2023/04/01 01:03:55;;;;;;;5.93;3.10;;;;;;;8.44;100.00;99108.03;4997424;28;20038;-76
2023/04/01 01:06:54;;;;;;;7.78;3.35;;;;;;;8.44;100.00;99113.25;4994548;28;20037;-77
2023/04/01 01:09:30;;;;;;;5.85;3.20;;;;;;;8.43;100.00;99109.78;4988065;28;20042;-76
2023/04/01 01:12:13;;;;;;;6.25;3.15;;;;;;;8.44;100.00;99113.25;4996191;28;20038;-71
2023/04/01 01:14:55;;;;;;;10.02;3.50;;;;;;;8.44;100.00;99115.84;4997354;28;20120;-71
2023/04/01 01:17:47;;;;;;;4.57;3.45;;;;;;;8.44;100.00;99113.25;4997434;28;20478;-71
2023/04/01 01:20:33;;;;;;;5.60;3.55;;;;;;;8.42;100.00;99117.63;4999431;28;20501;-71
2023/04/01 01:23:11;;;;;;;8.65;3.88;;;;;;;8.42;100.00;99120.25;4986845;28;20042;-71
2023/04/01 01:25:58;;;;;;;6.30;3.85;;;;;;;8.43;100.00;99124.56;4978207;28;20048;-71
2023/04/01 01:29:01;;;;;;;6.43;3.92;;;;;;;8.41;100.00;99114.19;4987962;28;20045;-71
2023/04/01 01:31:53;;;;;;;5.15;4.07;;;;;;;8.44;100.00;99121.06;4987291;28;20042;-71
2023/04/01 01:34:25;;;;;;;8.50;4.65;;;;;;;8.42;100.00;99115.03;4997402;28;20042;-71
2023/04/01 01:36:57;;;;;;;5.43;4.30;;;;;;;8.41;100.00;99113.34;4997004;28;20464;-72
2023/04/01 01:39:27;;;;;;;6.65;4.57;;;;;;;8.39;100.00;99122.97;5013670;28;20153;-72
2023/04/01 01:41:55;;;;;;;6.47;4.38;;;;;;;8.42;100.00;99128.09;4996199;28;20030;-72
2023/04/01 01:44:22;;;;;;;6.38;4.30;;;;;;;8.43;100.00;99128.06;4981074;28;20394;-71
2023/04/01 01:46:49;;;;;;;7.28;5.03;;;;;;;8.42;100.00;99125.47;4980130;28;20037;-71
2023/04/01 01:49:16;;;;;;;6.38;4.97;;;;;;;8.41;100.00;99135.06;4995903;28;20486;-72
2023/04/01 01:51:42;;;;;;;8.40;5.13;;;;;;;8.39;100.00;99128.19;4980395;28;20037;-71
2023/04/01 01:54:16;;;;;;;7.03;5.20;;;;;;;8.43;100.00;99142.84;4980868;28;20067;-71
2023/04/01 01:56:45;;;;;;;8.23;6.05;;;;;;;8.44;100.00;99139.34;5013449;28;20145;-71
2023/04/01 01:59:11;;;;;;;8.23;5.82;;;;;;;8.42;100.00;99135.91;4976832;28;20070;-71
2023/04/01 02:01:41;;;;;;;8.00;6.47;;;;;;;8.42;100.00;99138.53;4982416;28;20034;-71
2023/04/01 02:04:10;;;;;;;8.85;7.53;;;;;;;8.43;100.00;99148.94;4985064;28;20134;-71
2023/04/01 02:06:40;;;;;;;10.57;9.02;;;;;;;8.42;100.00;99143.75;4978863;28;20502;-72
2023/04/01 02:09:10;;;;;;;9.90;8.30;;;;;;;8.41;100.00;99148.13;4989581;28;20073;-72
2023/04/01 02:11:48;;;;;;;11.90;9.38;;;;;;;8.41;100.00;99145.50;4995125;28;20033;-79
2023/04/01 02:14:42;;;;;;;12.38;9.20;;;;;;;8.39;100.00;99160.38;4983991;28;20498;-78
2023/04/01 02:17:11;;;;;;;13.32;9.65;;;;;;;8.40;100.00;99153.38;4949208;28;20038;-72
2023/04/01 02:19:51;;;;;;;11.80;8.73;;;;;;;8.39;100.00;99154.28;4989064;28;20050;-70
2023/04/01 02:22:26;;;;;;;10.25;8.35;;;;;;;8.37;100.00;99159.53;4988225;28;20395;-71
2023/04/01 02:24:57;;;;;;;11.35;8.07;;;;;;;8.36;100.00;99160.47;4994683;28;21281;-71
2023/04/01 02:27:23;;;;;;;8.15;7.13;;;;;;;8.35;100.00;99157.88;4994957;28;20053;-76
2023/04/01 02:29:51;;;;;;;12.32;6.75;;;;;;;8.32;100.00;99162.31;4980139;28;20547;-76
2023/04/01 02:32:19;;;;;;;9.70;7.25;;;;;;;8.31;100.00;99168.41;4995649;28;20045;-79
2023/04/01 02:34:44;;;;;;;11.88;7.65;;;;;;;8.29;100.00;99162.41;4995432;28;20041;-78
2023/04/01 02:37:12;;;;;;;11.25;7.57;;;;;;;8.30;100.00;99173.69;4995788;28;20081;-77
2023/04/01 02:39:37;;;;;;;13.20;9.18;;;;;;;8.30;100.00;99169.34;4964809;28;20045;-78
2023/04/01 02:42:03;;;;;;;12.35;9.60;;;;;;;8.27;100.00;99166.78;4974046;28;20041;-78
2023/04/01 02:44:28;;;;;;;12.73;9.48;;;;;;;8.27;100.00;99165.94;4960150;28;20149;-77
2023/04/01 02:46:55;;;;;;;12.88;9.50;;;;;;;8.28;100.00;99172.88;4975153;28;20065;-78
2023/04/01 02:49:21;;;;;;;13.15;9.88;;;;;;;8.29;100.00;99172.84;4976713;28;20042;-78
2023/04/01 02:51:46;;;;;;;15.80;11.00;;;;;;;8.32;100.00;99174.50;4971084;28;20042;-78
2023/04/01 02:54:12;;;;;;;14.63;10.05;;;;;;;8.33;100.00;99173.59;4980831;28;20038;-77
2023/04/01 02:56:37;;;;;;;15.75;10.40;;;;;;;8.31;100.00;99176.25;4955340;28;20081;-78
2023/04/01 02:59:03;;;;;;;15.40;10.57;;;;;;;8.32;100.00;99177.13;4971158;28;20041;-78
2023/04/01 03:01:29;;;;;;;14.15;10.35;;;;;;;8.33;100.00;99182.28;4962895;28;20481;-77
2023/04/01 03:03:54;;;;;;;14.73;10.43;;;;;;;8.33;100.00;99189.25;4960523;28;20706;-78
2023/04/01 03:06:19;;;;;;;15.63;10.93;;;;;;;8.35;100.00;99181.38;4963143;28;20497;-78
2023/04/01 03:08:45;;;;;;;16.02;11.18;;;;;;;8.34;100.00;99188.34;4963561;28;20132;-79
2023/04/01 03:11:11;;;;;;;15.15;10.90;;;;;;;8.33;100.00;99187.50;4979129;28;20066;-78
2023/04/01 03:13:36;;;;;;;17.05;10.85;;;;;;;8.34;100.00;99188.34;4994944;28;20044;-78
2023/04/01 03:16:02;;;;;;;17.17;12.05;;;;;;;8.33;100.00;99194.47;4979578;28;20096;-79
2023/04/01 03:18:28;;;;;;;17.48;12.52;;;;;;;8.34;100.00;99188.34;4963403;28;20064;-79
2023/04/01 03:20:53;;;;;;;19.98;14.27;;;;;;;8.32;100.00;99190.16;4961117;28;20080;-78
2023/04/01 03:23:21;;;;;;;19.35;13.07;;;;;;;8.33;100.00;99194.47;4976217;28;20069;-78
2023/04/01 03:25:47;;;;;;;19.35;13.40;;;;;;;8.35;100.00;99189.19;4959403;28;20089;-78
2023/04/01 03:28:13;;;;;;;21.15;13.70;;;;;;;8.34;100.00;99193.56;4978720;28;20041;-78
2023/04/01 03:30:39;;;;;;;19.17;13.25;;;;;;;8.33;100.00;99190.13;4979412;28;20050;-78
2023/04/01 03:33:06;;;;;;;20.25;12.45;;;;;;;8.32;100.00;99201.44;4960096;28;20421;-78
2023/04/01 03:35:32;;;;;;;18.75;12.73;;;;;;;8.29;100.00;99198.94;4975837;28;20035;-78
2023/04/01 03:37:57;;;;;;;15.77;11.38;;;;;;;8.26;100.00;99203.38;4985281;28;20045;-72
2023/04/01 03:40:24;;;;;;;17.40;11.43;;;;;;;8.23;100.00;99199.13;4990800;28;20037;-72
2023/04/01 03:42:50;;;;;;;17.05;11.20;;;;;;;8.23;100.00;99193.03;4976625;28;20061;-72
2023/04/01 03:45:16;;;;;;;15.90;11.05;;;;;;;8.23;100.00;99200.84;4966456;28;20470;-72
2023/04/01 03:47:41;;;;;;;13.45;10.45;;;;;;;8.21;100.00;99200.91;4978207;28;20054;-78
2023/04/01 03:50:07;;;;;;;15.57;10.77;;;;;;;8.20;100.00;99207.00;4988011;28;20544;-78
2023/04/01 03:52:33;;;;;;;16.60;11.52;;;;;;;8.19;100.00;99205.31;4978992;28;20046;-78
2023/04/01 03:54:59;;;;;;;18.25;10.75;;;;;;;8.20;100.00;99203.56;4978117;28;20137;-78
2023/04/01 03:57:24;;;;;;;15.32;10.23;;;;;;;8.16;100.00;99202.78;4973996;28;20046;-78
2023/04/01 03:59:50;;;;;;;12.07;9.00;;;;;;;8.15;100.00;99211.50;4992312;28;20578;-78
2023/04/01 04:02:15;;;;;;;13.40;8.88;;;;;;;8.14;100.00;99217.63;4974389;28;20042;-78
2023/04/01 04:04:41;;;;;;;12.32;9.35;;;;;;;8.15;100.00;99214.13;4967302;28;20054;-78
2023/04/01 04:07:07;;;;;;;11.43;8.75;;;;;;;8.14;100.00;99215.00;4967663;28;20039;-78
2023/04/01 04:09:33;;;;;;;12.73;9.48;;;;;;;8.13;100.00;99216.78;4959787;28;20487;-78
2023/04/01 04:11:59;;;;;;;12.05;8.52;;;;;;;8.12;100.00;99217.66;4955721;28;20038;-78
2023/04/01 04:14:24;;;;;;;13.02;8.82;;;;;;;8.11;100.00;99235.97;4961984;28;20042;-78
2023/04/01 04:16:50;;;;;;;11.40;7.35;;;;;;;8.08;100.00;99226.47;4958468;28;20394;-78
2023/04/01 04:19:15;;;;;;;8.45;6.60;;;;;;;8.07;100.00;99227.38;4966750;28;20050;-78
2023/04/01 04:21:41;;;;;;;9.27;6.68;;;;;;;8.07;100.00;99229.97;4975678;28;20112;-78
2023/04/01 04:24:06;;;;;;;7.95;5.95;;;;;;;8.07;100.00;99236.94;4960264;28;20039;-78
2023/04/01 04:26:32;;;;;;;9.00;6.32;;;;;;;8.05;100.00;99233.53;4969426;28;20038;-78
2023/04/01 04:28:57;;;;;;;10.10;7.22;;;;;;;8.05;100.00;99236.16;4961041;28;20073;-78
2023/04/01 04:31:24;;;;;;;10.75;6.25;;;;;;;8.05;100.00;99238.75;4962493;28;20046;-78
2023/04/01 04:33:51;;;;;;;9.93;6.78;;;;;;;8.04;100.00;99243.09;4978921;28;20038;-78
2023/04/01 04:36:17;;;;;;;10.80;6.93;;;;;;;8.05;100.00;99251.81;4991358;28;20074;-77
2023/04/01 04:38:43;;;;;;;8.25;6.28;;;;;;;8.01;100.00;99247.56;4978475;28;20035;-77
2023/04/01 04:41:17;;;;;;;8.60;6.05;;;;;;;8.02;100.00;99254.50;4964569;28;20053;-78
2023/04/01 04:43:49;;;;;;;9.73;6.40;;;;;;;7.98;100.00;99249.34;4997162;28;20609;-77
2023/04/01 04:46:15;;;;;;;7.68;5.57;;;;;;;8.01;100.00;99255.38;4998273;28;20485;-77
2023/04/01 04:48:41;;;;;;;8.75;6.40;;;;;;;8.01;100.00;99250.16;4981109;28;20036;-77
2023/04/01 04:51:07;;;;;;;8.93;6.50;;;;;;;8.00;100.00;99253.66;4965442;28;20077;-77
2023/04/01 04:53:32;;;;;;;9.43;6.35;;;;;;;8.00;100.00;99267.56;4998141;28;20041;-77
2023/04/01 04:55:57;;;;;;;9.02;6.55;;;;;;;8.00;100.00;99264.94;4965536;28;20045;-77
2023/04/01 04:58:23;;;;;;;7.82;5.93;;;;;;;7.98;100.00;99262.38;4966190;28;20050;-77
2023/04/01 05:00:48;;;;;;;7.93;5.80;;;;;;;7.98;100.00;99266.75;4981436;28;20496;-77
2023/04/01 05:03:14;;;;;;;6.18;4.72;;;;;;;8.00;100.00;99270.16;4978266;28;20184;-77
2023/04/01 05:05:40;;;;;;;7.47;5.03;;;;;;;7.97;100.00;99273.72;4993353;28;20038;-77
2023/04/01 05:08:06;;;;;;;6.90;4.90;;;;;;;7.96;100.00;99277.22;4965192;28;20479;-77
2023/04/01 05:10:31;;;;;;;8.25;5.05;;;;;;;7.97;100.00;99278.94;4981388;28;20034;-77
2023/04/01 05:12:58;;;;;;;6.82;5.28;;;;;;;7.96;100.00;99279.84;4996364;28;20033;-77
2023/04/01 05:15:23;;;;;;;6.82;5.28;;;;;;;7.96;100.00;99284.22;4977532;28;20035;-77
2023/04/01 05:17:49;;;;;;;9.27;6.13;;;;;;;7.95;100.00;99288.56;4977918;28;20402;-77
2023/04/01 05:20:16;;;;;;;8.18;6.22;;;;;;;7.94;100.00;99289.47;4980955;28;20070;-76
2023/04/01 05:22:43;;;;;;;7.97;6.30;;;;;;;7.91;100.00;99289.53;4981105;28;20042;-76
2023/04/01 05:25:08;;;;;;;9.05;6.30;;;;;;;7.91;100.00;99294.75;4986668;28;20038;-77
2023/04/01 05:27:34;;;;;;;8.07;6.28;;;;;;;7.91;100.00;99301.72;4976983;28;20044;-78
2023/04/01 05:30:00;;;;;;;10.18;6.95;;;;;;;7.89;100.00;99306.13;4962364;28;20195;-76
2023/04/01 05:32:26;;;;;;;8.95;6.80;;;;;;;7.88;100.00;99313.06;5013039;28;20033;-77
2023/04/01 05:34:52;;;;;;;9.48;6.30;;;;;;;7.82;100.00;99308.03;4999366;28;20393;-77
2023/04/01 05:37:18;;;;;;;9.85;7.05;;;;;;;7.83;100.00;99307.13;4979829;28;20327;-77
2023/04/01 05:39:44;;;;;;;9.20;6.55;;;;;;;7.84;100.00;99315.81;5013442;28;20025;-77
2023/04/01 05:42:09;;;;;;;8.68;5.82;;;;;;;7.84;100.00;99318.41;4982001;28;20045;-77
2023/04/01 05:44:35;;;;;;;9.77;6.28;;;;;;;7.83;100.00;99319.31;4963311;28;20046;-77
2023/04/01 05:47:01;;;;;;;8.93;6.15;;;;;;;7.82;100.00;99326.28;4980066;28;20088;-78
2023/04/01 05:49:26;;;;;;;9.55;6.28;;;;;;;7.82;100.00;99334.09;4967753;28;20041;-77
2023/04/01 05:51:52;;;;;;;8.43;5.85;;;;;;;7.82;100.00;99334.09;4975767;28;20046;-77
2023/04/01 05:54:18;;;;;;;9.48;6.35;;;;;;;7.85;100.00;99335.78;4969834;28;20042;-78
2023/04/01 05:56:44;;;;;;;8.15;6.18;;;;;;;7.84;100.00;99337.50;4996243;28;20044;-77
2023/04/01 05:59:11;;;;;;;8.50;6.47;;;;;;;7.82;100.00;99344.53;4991639;28;20403;-78
2023/04/01 06:01:36;;;;;;;8.65;6.47;;;;;;;7.82;100.00;99351.50;5005238;28;20030;-76
2023/04/01 06:04:02;;;;;;;9.82;7.32;;;;;;;7.82;100.00;99341.94;4982159;28;20053;-77
2023/04/01 06:06:29;;;;;;;10.65;8.30;;;;;;;7.85;100.00;99348.81;4992137;28;20026;-77
2023/04/01 06:08:57;;;;;;;13.95;8.98;;;;;;;7.86;100.00;99354.00;5009528;28;20125;-77
2023/04/01 06:11:41;;;;;;;13.73;9.20;;;;;;;7.88;100.00;99362.63;4995974;28;20075;-78
2023/04/01 06:14:23;;;;;;;16.90;11.25;;;;;;;7.91;100.00;99367.78;4988969;28;20434;-77
2023/04/01 06:17:07;;;;;;;15.57;10.68;;;;;;;7.93;100.00;99371.22;4990401;28;20472;-77
2023/04/01 06:19:50;;;;;;;16.58;11.20;;;;;;;7.93;100.00;99375.56;5006165;28;20045;-78
2023/04/01 06:22:53;;;;;;;19.10;12.90;;;;;;;7.96;100.00;99371.13;5006727;28;20050;-78
2023/04/01 06:25:35;;;;;;;18.80;13.00;;;;;;;7.97;100.00;99383.28;4989636;28;20045;-77
2023/04/01 06:28:32;;;;;;;18.00;12.55;;;;;;;7.99;100.00;99388.47;4992215;28;20038;-77
2023/04/01 06:31:33;;;;;;;17.95;12.68;;;;;;;8.03;100.00;99391.84;5001406;28;20087;-77
2023/04/01 06:34:11;;;;;;;20.45;12.35;;;;;;;8.05;100.00;99398.75;5010065;28;20494;-76
2023/04/01 06:36:36;;;;;;;17.58;12.63;;;;;;;8.05;100.00;99396.13;4995222;28;20091;-77
2023/04/01 06:39:28;;;;;;;18.77;13.23;;;;;;;8.06;100.00;99400.47;4995455;28;20073;-77
2023/04/01 06:42:11;;;;;;;20.15;13.48;;;;;;;8.07;100.00;99396.09;4976561;28;20136;-78
2023/04/01 06:44:57;;;;;;;17.30;12.55;;;;;;;8.09;100.00;99399.53;4995092;28;20390;-77
2023/04/01 06:47:44;;;;;;;20.50;13.65;;;;;;;8.10;100.00;99403.84;5020652;28;20030;-77
2023/04/01 06:50:26;;;;;;;17.40;12.18;;;;;;;8.13;100.00;99406.38;4982157;28;20410;-76
2023/04/01 06:53:17;;;;;;;17.45;13.60;;;;;;;8.16;100.00;99414.16;4994665;28;20084;-77
2023/04/01 06:55:47;;;;;;;19.90;13.38;;;;;;;8.16;100.00;99414.16;5010194;28;20072;-77
2023/04/01 06:58:31;;;;;;;18.20;13.00;;;;;;;8.16;100.00;99416.75;4990672;28;20050;-77
2023/04/01 07:01:00;;;;;;;19.58;13.60;;;;;;;8.20;100.00;99420.13;4989653;28;20096;-77
2023/04/01 07:03:36;;;;;;;19.90;13.52;;;;;;;8.22;100.00;99431.41;4995123;28;20095;-77
2023/04/01 07:06:23;;;;;;;18.10;13.75;;;;;;;8.24;100.00;99435.66;5002397;28;20183;-78
2023/04/01 07:08:52;;;;;;;21.08;14.48;;;;;;;8.25;100.00;99434.78;4987625;28;20038;-78
2023/04/01 07:11:28;;;;;;;22.50;14.80;;;;;;;8.29;100.00;99443.41;4975021;28;20034;-78
2023/04/01 07:14:28;;;;;;;23.17;15.23;;;;;;;8.30;100.00;99442.50;4980634;28;20030;-77
2023/04/01 07:16:59;;;;;;;;;;;;;;;8.35;100.00;99443.25;4993616;28;20065;-78
2023/04/01 07:19:55;;;;;;;25.85;15.40;;;;;;;8.36;100.00;99459.75;4995211;28;19921;-77
2023/04/01 07:22:31;;;;;;;27.17;15.98;;;;;;;8.36;100.00;99454.53;4974845;28;20045;-78
2023/04/01 07:25:01;;;;;;;22.30;14.70;;;;;;;8.36;100.00;99455.41;4975792;28;20034;-78
2023/04/01 07:27:26;;;;;;;24.55;15.25;;;;;;;8.38;100.00;99458.84;4976527;28;20045;-78
2023/04/01 07:29:55;;;;;;;24.75;15.02;;;;;;;8.40;100.00;99461.41;4962897;28;20045;-78
2023/04/01 07:32:33;;;;;;;24.65;15.00;;;;;;;8.44;100.00;99469.13;4979201;28;20136;-77
2023/04/01 07:35:24;;;;;;;23.92;14.95;;;;;;;8.49;100.00;99479.47;4995014;28;20096;-78
2023/04/01 07:37:55;;;;;;;32.15;24.48;;;;;;;8.48;100.00;99473.41;4994968;28;20042;-78
2023/04/01 07:40:31;;;;;;;57.45;39.47;;;;;;;8.51;100.00;99480.31;4994783;28;20038;-78
2023/04/01 07:43:36;;;;;;;48.22;36.45;;;;;;;8.53;100.00;99483.72;4994002;28;20394;-78
2023/04/01 07:46:30;;;;;;;28.33;19.95;;;;;;;8.52;100.00;99486.38;4992860;28;20030;-78
2023/04/01 07:49:00;;;;;;;26.27;17.85;;;;;;;8.52;100.00;99492.47;4994927;28;20037;-78
2023/04/01 07:51:34;;;;;;;22.08;13.82;;;;;;;8.54;100.00;99495.88;4994638;28;20056;-78
2023/04/01 07:54:05;;;;;;;35.50;20.13;;;;;;;8.61;100.00;99502.66;4980571;28;20038;-77
2023/04/01 07:57:00;;;;;;;24.17;15.10;;;;;;;8.64;100.00;99501.75;4982021;28;20034;-77
2023/04/01 07:59:42;;;;;;;16.42;10.55;;;;;;;8.71;100.00;99507.66;4986570;28;20351;-77
2023/04/01 08:02:20;;;;;;;19.88;11.70;;;;;;;8.77;100.00;99512.72;4975255;28;20140;-78
2023/04/01 08:04:48;;;;;;;25.00;14.82;;;;;;;8.84;100.00;99509.91;4975348;28;20065;-77
2023/04/01 08:07:30;;;;;;;34.50;18.20;;;;;;;8.88;100.00;99520.28;4975184;28;20030;-78
2023/04/01 08:10:08;;;;;;;37.83;21.40;;;;;;;8.92;100.00;99517.56;4976291;28;20402;-78
2023/04/01 08:12:48;;;;;;;33.72;17.77;;;;;;;8.96;100.00;99524.41;4995454;28;20498;-78
2023/04/01 08:15:36;;;;;;;60.78;30.17;;;;;;;8.98;100.00;99525.22;4998649;28;20049;-78
2023/04/01 08:18:40;;;;;;;52.58;28.55;;;;;;;8.97;100.00;99536.56;4998655;28;20148;-78
2023/04/01 08:21:31;;;;;;;82.78;41.20;;;;;;;8.92;100.00;99533.25;4945279;28;20108;-78
2023/04/01 08:24:02;;;;;;;60.90;30.52;;;;;;;8.91;100.00;99541.13;5015145;28;20101;-77
2023/04/01 08:26:44;;;;;;;60.38;34.05;;;;;;;8.91;100.00;99544.59;5018892;28;20389;-78
2023/04/01 08:29:23;;;;;;;48.42;30.90;;;;;;;8.91;100.00;99547.19;5013377;28;20049;-78
2023/04/01 08:31:55;;;;;;;27.15;17.50;;;;;;;8.92;100.00;99550.66;5016304;28;20025;-78
2023/04/01 08:34:29;;;;;;;47.80;29.45;;;;;;;8.95;100.00;99550.56;4998450;28;20116;-77
2023/04/01 08:37:07;;;;;;;34.67;21.65;;;;;;;8.93;100.00;99552.38;5005914;28;20263;-79
2023/04/01 08:39:45;;;;;;;39.42;23.83;;;;;;;8.97;100.00;99552.25;5004030;28;20037;-78
2023/04/01 08:42:16;;;;;;;48.50;30.60;;;;;;;8.98;100.00;99556.59;4997553;28;20032;-76
2023/04/01 08:45:00;;;;;;;38.55;25.75;;;;;;;9.00;100.00;99556.53;5000980;28;20042;-75
2023/04/01 08:48:08;;;;;;;25.40;18.10;;;;;;;9.00;99.92;99565.22;5002141;28;20099;-77
2023/04/01 08:50:46;;;;;;;33.30;20.52;;;;;;;9.00;100.00;99570.47;4996060;28;20038;-78
2023/04/01 08:53:49;;;;;;;26.52;16.88;;;;;;;8.99;99.51;99581.81;4990310;28;20045;-77
2023/04/01 08:56:22;;;;;;;27.42;17.85;;;;;;;8.98;99.49;99576.66;4995518;28;20064;-78
2023/04/01 08:59:09;;;;;;;25.17;16.67;;;;;;;8.96;99.63;99584.50;4992925;28;20033;-79
2023/04/01 09:02:12;;;;;;;27.08;17.20;;;;;;;8.96;99.55;99592.34;5015077;28;20038;-77
2023/04/01 09:04:53;;;;;;;51.33;29.40;;;;;;;9.00;99.14;99599.19;4975339;28;20123;-76
2023/04/01 09:07:33;;;;;;;;;;;;;;;9.03;99.08;99606.13;5009309;28;20500;-77
2023/04/01 09:17:56;;;;;;;22.13;14.57;;;;;;;9.05;98.72;99611.28;5317848;22;20111;-75
2023/04/01 10:54:33;;;;;;;15.30;13.70;;;;;;;9.87;96.92;99704.19;4855372;26;20444;-71
2023/04/01 10:57:18;;;;;;;15.13;13.45;;;;;;;9.84;97.00;99709.47;4999981;28;20030;-71
2023/04/01 11:00:08;;;;;;;15.38;13.05;;;;;;;9.77;97.23;99721.00;5017300;28;20045;-71
2023/04/01 11:03:00;;;;;;;15.37;13.77;;;;;;;9.71;97.21;99724.63;4992792;28;20497;-70
2023/04/01 11:05:54;;;;;;;15.85;13.65;;;;;;;9.70;97.81;99729.03;4963448;28;20613;-70
2023/04/01 11:08:32;;;;;;;14.65;13.10;;;;;;;9.66;97.85;99730.00;4989602;28;20074;-71
2023/04/01 11:11:11;;;;;;;16.38;14.68;;;;;;;9.62;97.43;99730.13;4998760;28;20038;-71
2023/04/01 11:14:04;;;;;;;15.23;13.73;;;;;;;9.62;97.87;99730.97;4997597;28;20045;-71
2023/04/01 11:17:09;;;;;;;18.17;15.57;;;;;;;9.66;98.31;99731.78;4985247;28;20033;-71
2023/04/01 11:19:46;;;;;;;16.95;15.13;;;;;;;9.67;97.92;99733.50;4987386;28;20030;-70
2023/04/01 11:22:18;;;;;;;16.48;14.77;;;;;;;9.64;97.88;99742.28;5000756;28;20095;-70
2023/04/01 11:25:05;;;;;;;16.02;14.32;;;;;;;9.61;97.57;99747.59;4990633;28;20030;-70
2023/04/01 11:27:42;;;;;;;16.58;14.43;;;;;;;9.61;98.15;99752.81;4992933;28;20025;-76
2023/04/01 11:30:54;;;;;;;16.73;14.57;;;;;;;9.64;98.65;99746.63;4991310;28;20045;-77
2023/04/01 11:33:25;;;;;;;18.50;15.18;;;;;;;9.67;98.21;99752.66;4981014;28;20133;-76
2023/04/01 11:35:57;;;;;;;18.45;15.98;;;;;;;9.71;98.50;99756.03;4991836;28;20473;-76
2023/04/01 11:38:45;;;;;;;18.85;16.33;;;;;;;9.79;98.41;99761.94;5009417;28;20052;-76
2023/04/01 11:41:22;;;;;;;18.30;16.08;;;;;;;9.80;98.01;99760.19;4988463;28;20069;-76
2023/04/01 11:44:08;;;;;;;21.58;17.70;;;;;;;9.85;98.21;99764.38;4993997;28;20400;-77
2023/04/01 11:46:46;;;;;;;18.77;16.75;;;;;;;9.89;97.77;99767.78;4984369;28;20030;-76
2023/04/01 11:49:42;;;;;;;22.75;18.95;;;;;;;9.96;98.73;99769.34;5012181;28;20045;-76
2023/04/01 11:52:19;;;;;;;19.48;17.35;;;;;;;10.05;98.79;99770.88;4993189;28;20424;-76
2023/04/01 11:55:06;;;;;;;20.17;16.95;;;;;;;10.10;98.28;99776.84;4979654;28;20054;-76
2023/04/01 11:57:50;;;;;;;21.60;16.98;;;;;;;10.19;98.43;99775.72;5009131;28;20047;-77
2023/04/01 12:00:30;;;;;;;19.70;15.45;;;;;;;10.23;97.88;99783.47;4989584;28;20046;-72
2023/04/01 12:03:07;;;;;;;15.25;13.63;;;;;;;10.28;96.40;99788.56;4992754;28;20030;-72
2023/04/01 12:05:39;;;;;;;19.58;14.80;;;;;;;10.31;97.17;99788.47;4990740;28;20038;-72
2023/04/01 12:08:16;;;;;;;16.55;13.43;;;;;;;10.30;95.69;99788.50;5006317;28;20498;-72
2023/04/01 12:10:57;;;;;;;18.35;13.75;;;;;;;10.44;97.49;99794.25;4989501;28;20153;-72
2023/04/01 12:13:49;;;;;;;14.82;13.05;;;;;;;10.52;96.65;99799.31;5008404;28;20069;-72
2023/04/01 12:16:18;;;;;;;14.88;12.93;;;;;;;10.56;96.17;99798.31;4998217;28;20049;-72
2023/04/01 12:18:49;;;;;;;16.42;14.30;;;;;;;10.67;96.78;99809.31;4997556;28;20038;-72
2023/04/01 12:21:28;;;;;;;14.27;12.80;;;;;;;10.67;95.75;99805.84;4998374;28;20048;-71
2023/04/01 12:24:02;;;;;;;14.35;11.55;;;;;;;10.63;94.21;99809.47;4987061;28;20035;-72
2023/04/01 12:26:47;;;;;;;10.88;9.55;;;;;;;10.55;94.03;99805.31;4979067;28;20401;-71
2023/04/01 12:29:28;;;;;;;11.40;10.02;;;;;;;10.54;94.25;99813.22;4979266;28;20042;-71
2023/04/01 12:32:20;;;;;;;12.43;9.05;;;;;;;10.45;94.21;99823.94;4983771;28;20116;-71
2023/04/01 12:35:12;;;;;;;13.50;10.55;;;;;;;10.43;94.70;99820.50;5008132;28;20462;-71
2023/04/01 12:37:59;;;;;;;10.07;8.65;;;;;;;10.38;94.15;99833.72;5007337;28;20034;-71
2023/04/01 12:41:03;;;;;;;11.05;8.00;;;;;;;10.38;94.28;99829.34;4980285;28;20038;-71
2023/04/01 12:43:50;;;;;;;9.88;7.85;;;;;;;10.36;93.81;99833.78;5003401;28;20422;-72
2023/04/01 12:46:32;;;;;;;9.75;7.93;;;;;;;10.35;93.91;99839.06;5005554;28;20033;-71
2023/04/01 12:49:15;;;;;;;11.30;7.43;;;;;;;10.26;93.50;99841.88;4997100;28;20400;-72
2023/04/01 12:51:58;;;;;;;11.25;7.97;;;;;;;10.29;94.85;99841.81;4988302;28;20038;-71
2023/04/01 12:54:30;;;;;;;8.98;6.72;;;;;;;10.27;95.05;99847.09;4988994;28;20120;-72
2023/04/01 12:57:16;;;;;;;9.43;7.18;;;;;;;10.30;95.32;99847.00;4993605;28;20498;-71
2023/04/01 13:00:11;;;;;;;11.88;8.10;;;;;;;10.25;95.44;99843.63;4991561;28;20037;-71
2023/04/01 13:02:51;;;;;;;10.35;8.23;;;;;;;10.22;95.01;99847.19;5011220;28;20048;-71
2023/04/01 13:05:38;;;;;;;11.38;8.38;;;;;;;10.26;95.69;99855.84;4998247;28;20034;-71
2023/04/01 13:08:30;;;;;;;12.00;9.15;;;;;;;10.25;95.31;99856.72;4998278;28;20037;-72
2023/04/01 13:11:41;;;;;;;11.90;10.05;;;;;;;10.22;95.37;99862.03;4996988;28;20033;-71
2023/04/01 13:14:44;;;;;;;12.25;9.43;;;;;;;10.18;95.61;99870.88;4975119;28;20442;-72
2023/04/01 13:17:33;;;;;;;12.20;10.18;;;;;;;10.12;96.38;99873.66;4975116;28;20043;-72
2023/04/01 13:20:22;;;;;;;12.70;10.85;;;;;;;10.06;96.73;99872.91;4978488;28;20034;-72
2023/04/01 13:23:22;;;;;;;14.93;12.07;;;;;;;10.04;96.42;99877.34;4976995;28;20035;-72
2023/04/01 13:25:54;;;;;;;10.02;8.80;;;;;;;9.95;96.46;99885.41;4977096;28;20406;-72
2023/04/01 13:28:42;;;;;;;10.10;8.10;;;;;;;9.91;96.94;99885.50;4992691;28;20042;-72
2023/04/01 13:31:14;;;;;;;11.07;8.20;;;;;;;9.90;97.36;99897.75;4996963;28;20068;-72
2023/04/01 13:33:57;;;;;;;9.55;7.75;;;;;;;9.88;97.98;99878.59;4997947;28;20255;-71
2023/04/01 13:36:35;;;;;;;9.93;8.05;;;;;;;9.89;97.85;99891.63;5012496;28;20038;-71
2023/04/01 13:39:22;;;;;;;9.50;7.75;;;;;;;9.89;98.09;99894.25;4998211;28;20038;-72
2023/04/01 13:42:09;;;;;;;9.85;7.55;;;;;;;9.89;97.79;99896.88;4992334;28;20406;-72
2023/04/01 13:44:42;;;;;;;9.18;7.53;;;;;;;9.87;97.75;99905.69;4978907;28;20386;-72
2023/04/01 13:47:07;;;;;;;8.65;6.80;;;;;;;9.88;97.96;99905.63;4977664;28;20034;-72